Terminal Aerodrome Forecast
Issued by NWS

Home | Current Version | Previous Version | Text Only | Print | Product List | Glossary On
Versions: 1 2 3 4 5 6 7 8 9 10 11 12 13 14 15 16
000
FTUS43 KDLH 280910 AAA
TAFBRD
TAF AMD
KBRD 280910Z 2809/2906 VRB04KT P6SM SCT060
      TEMPO 2810/2812 2SM BR SCT005
     FM281400 05008KT P6SM FEW040=

USA.gov is the U.S. government's official web portal to all federal, state and local government web resources and services.